Time;durP1;ratioP1;P1;durP2;ratioP2;P2;SDS_P1;SDS_P2;PMS_P1;PMS_P2;Temp;Humidity;BMP_temperature;BMP_pressure;BME280_temperature;BME280_humidity;BME280_pressure;Samples;Min_cycle;Max_cycle;Signal;HPM_P1;HPM_P2
2022/06/26 00:01:42;;;;;;;7.28;6.78;;;;;;;;;;6138449;28;20788;-73
2022/06/26 00:05:03;;;;;;;9.13;8.48;;;;;;;;;;6156660;28;20229;-73
2022/06/26 00:08:26;;;;;;;7.85;7.35;;;;;;;;;;6155446;28;20258;-73
2022/06/26 00:11:46;;;;;;;8.05;7.45;;;;;;;;;;6156286;28;20230;-73
2022/06/26 00:15:07;;;;;;;7.55;6.95;;;;;;;;;;6152590;28;20961;-72
2022/06/26 00:18:28;;;;;;;9.20;8.50;;;;;;;;;;6159235;28;20504;-74
2022/06/26 00:21:50;;;;;;;7.93;7.43;;;;;;;;;;6155383;28;20237;-72
2022/06/26 00:25:12;;;;;;;7.95;7.35;;;;;;;;;;6168721;28;20229;-72
2022/06/26 00:28:33;;;;;;;8.88;8.18;;;;;;;;;;6152858;28;20234;-72
2022/06/26 00:31:53;;;;;;;9.48;8.65;;;;;;;;;;6181680;28;20233;-73
2022/06/26 00:35:14;;;;;;;8.18;7.57;;;;;;;;;;6168646;28;20237;-73
2022/06/26 00:38:35;;;;;;;8.88;8.20;;;;;;;;;;6159325;28;20557;-73
2022/06/26 00:41:58;;;;;;;9.85;9.10;;;;;;;;;;6171660;28;20261;-72
2022/06/26 00:45:18;;;;;;;7.95;7.45;;;;;;;;;;6181631;28;20234;-73
2022/06/26 00:48:39;;;;;;;8.75;8.02;;;;;;;;;;6168511;28;20230;-73
2022/06/26 00:51:59;;;;;;;8.77;8.07;;;;;;;;;;6168372;28;20242;-72
2022/06/26 00:55:20;;;;;;;8.10;7.50;;;;;;;;;;6167583;28;21356;-73
2022/06/26 00:58:42;;;;;;;8.30;7.65;;;;;;;;;;6150854;28;20317;-73
2022/06/26 01:02:03;;;;;;;7.82;7.22;;;;;;;;;;6158899;28;20241;-73
2022/06/26 01:05:24;;;;;;;9.18;8.43;;;;;;;;;;6162099;28;20324;-73
2022/06/26 01:08:46;;;;;;;7.97;7.38;;;;;;;;;;6158526;28;20632;-71
2022/06/26 01:12:07;;;;;;;8.52;7.72;;;;;;;;;;6166468;28;20238;-72
2022/06/26 01:15:29;;;;;;;7.20;6.70;;;;;;;;;;6160301;28;20242;-73
2022/06/26 01:18:50;;;;;;;9.15;8.45;;;;;;;;;;6174547;28;20302;-72
2022/06/26 01:22:11;;;;;;;8.77;8.00;;;;;;;;;;6182601;28;20230;-74
2022/06/26 01:25:43;;;;;;;9.32;8.63;;;;;;;;;;6180956;28;20285;-72
2022/06/26 01:29:04;;;;;;;8.15;7.45;;;;;;;;;;6166395;28;20230;-73
2022/06/26 01:32:25;;;;;;;8.07;7.35;;;;;;;;;;6180991;28;20328;-73
2022/06/26 01:35:46;;;;;;;8.63;7.95;;;;;;;;;;6167664;28;20578;-73
2022/06/26 01:39:06;;;;;;;8.57;7.97;;;;;;;;;;6155075;28;20324;-72
2022/06/26 01:42:28;;;;;;;7.65;7.15;;;;;;;;;;6156359;28;20990;-72
2022/06/26 01:45:50;;;;;;;8.40;7.85;;;;;;;;;;6165329;28;20543;-72
2022/06/26 01:49:11;;;;;;;8.52;7.97;;;;;;;;;;6178802;28;20238;-72
2022/06/26 01:52:33;;;;;;;9.77;9.05;;;;;;;;;;6185171;28;20253;-73
2022/06/26 01:55:53;;;;;;;9.77;8.88;;;;;;;;;;6175497;28;20229;-73
2022/06/26 01:59:34;;;;;;;8.85;8.23;;;;;;;;;;6162322;28;20445;-72
2022/06/26 02:02:58;;;;;;;8.13;7.57;;;;;;;;;;6172230;28;20229;-72
2022/06/26 02:06:20;;;;;;;7.53;7.03;;;;;;;;;;6163445;28;20257;-72
2022/06/26 02:17:03;;;;;;;9.13;8.35;;;;;;;;;;6162911;28;20237;-72
2022/06/26 02:20:24;;;;;;;8.27;7.68;;;;;;;;;;6163501;28;20226;-73
2022/06/26 02:23:45;;;;;;;9.77;9.13;;;;;;;;;;6159212;28;20238;-73
2022/06/26 02:27:06;;;;;;;8.43;7.70;;;;;;;;;;6163594;28;20238;-73
2022/06/26 02:30:27;;;;;;;10.85;10.05;;;;;;;;;;6161445;28;20233;-72
2022/06/26 02:33:49;;;;;;;13.65;12.65;;;;;;;;;;6177784;28;20233;-73
2022/06/26 02:37:10;;;;;;;12.32;11.43;;;;;;;;;;6162146;28;20222;-73
2022/06/26 02:40:31;;;;;;;11.15;10.35;;;;;;;;;;6173908;28;20271;-72
2022/06/26 02:43:53;;;;;;;10.82;10.02;;;;;;;;;;6162365;28;20634;-73
2022/06/26 02:47:14;;;;;;;10.70;9.98;;;;;;;;;;6163921;28;20241;-72
2022/06/26 02:50:36;;;;;;;10.38;9.57;;;;;;;;;;6163598;28;20229;-72
2022/06/26 02:53:57;;;;;;;9.88;9.20;;;;;;;;;;6160520;28;20773;-73
2022/06/26 02:57:18;;;;;;;11.23;10.40;;;;;;;;;;6163485;28;20233;-73
2022/06/26 03:00:43;;;;;;;14.73;13.70;;;;;;;;;;6173830;28;20241;-72
2022/06/26 03:04:05;;;;;;;18.40;16.92;;;;;;;;;;6160500;28;20352;-72
2022/06/26 03:07:26;;;;;;;15.65;14.55;;;;;;;;;;6166197;28;20265;-73
2022/06/26 03:10:50;;;;;;;13.82;12.82;;;;;;;;;;6165310;28;20261;-73
2022/06/26 03:14:10;;;;;;;13.30;12.30;;;;;;;;;;6161070;28;20233;-72
2022/06/26 03:17:31;;;;;;;14.27;13.23;;;;;;;;;;6166307;28;20578;-72
2022/06/26 03:20:55;;;;;;;12.15;11.23;;;;;;;;;;6163712;28;20309;-72
2022/06/26 03:24:17;;;;;;;15.75;14.68;;;;;;;;;;6157882;28;20615;-72
2022/06/26 03:27:38;;;;;;;25.02;23.02;;;;;;;;;;6178895;28;20499;-73
2022/06/26 03:30:58;;;;;;;14.43;13.10;;;;;;;;;;6160813;28;20350;-73
2022/06/26 03:34:20;;;;;;;12.07;11.18;;;;;;;;;;6162398;28;20603;-73
2022/06/26 03:37:40;;;;;;;15.98;14.50;;;;;;;;;;6161273;28;20353;-73
2022/06/26 03:41:03;;;;;;;10.02;9.20;;;;;;;;;;6151283;28;20237;-72
2022/06/26 03:44:25;;;;;;;10.80;10.10;;;;;;;;;;6161029;28;20234;-72
2022/06/26 03:47:45;;;;;;;11.05;10.13;;;;;;;;;;6157319;28;20340;-72
2022/06/26 03:51:06;;;;;;;11.20;10.35;;;;;;;;;;6158566;28;20235;-72
2022/06/26 03:54:27;;;;;;;11.43;10.52;;;;;;;;;;6170944;28;20230;-72
2022/06/26 03:57:49;;;;;;;11.27;10.40;;;;;;;;;;6176405;28;20234;-72
2022/06/26 04:01:10;;;;;;;14.05;11.50;;;;;;;;;;6165010;28;20230;-73
2022/06/26 04:04:31;;;;;;;13.00;12.00;;;;;;;;;;6177604;28;20237;-73
2022/06/26 04:07:52;;;;;;;11.40;10.70;;;;;;;;;;6177341;28;23289;-73
2022/06/26 04:11:35;;;;;;;12.85;11.82;;;;;;;;;;6162819;28;20234;-72
2022/06/26 04:14:57;;;;;;;11.35;10.52;;;;;;;;;;6176901;28;20316;-72
2022/06/26 04:18:18;;;;;;;13.15;12.15;;;;;;;;;;6152176;28;20321;-71
2022/06/26 04:21:38;;;;;;;10.50;9.70;;;;;;;;;;6166698;28;20230;-72
2022/06/26 04:25:02;;;;;;;10.82;10.05;;;;;;;;;;6167526;28;20257;-72
2022/06/26 04:28:23;;;;;;;12.30;11.40;;;;;;;;;;6169403;28;20241;-71
2022/06/26 04:31:47;;;;;;;10.50;9.77;;;;;;;;;;6167311;28;20606;-73
2022/06/26 04:35:08;;;;;;;11.98;11.05;;;;;;;;;;6169350;28;20635;-73
2022/06/26 04:38:30;;;;;;;11.75;10.88;;;;;;;;;;6169262;28;20317;-73
2022/06/26 04:41:52;;;;;;;10.57;9.75;;;;;;;;;;6168479;28;20233;-73
2022/06/26 04:45:13;;;;;;;12.05;11.23;;;;;;;;;;6168102;28;20233;-72
2022/06/26 04:48:38;;;;;;;11.13;10.27;;;;;;;;;;6166964;28;20332;-73
2022/06/26 04:52:01;;;;;;;10.77;10.07;;;;;;;;;;6173819;28;20230;-73
2022/06/26 04:55:26;;;;;;;10.73;9.93;;;;;;;;;;6163609;28;20230;-73
2022/06/26 04:58:47;;;;;;;10.45;9.60;;;;;;;;;;6170078;28;20241;-71
2022/06/26 05:02:08;;;;;;;11.57;10.77;;;;;;;;;;6166000;28;20291;-70
2022/06/26 05:05:33;;;;;;;10.60;9.73;;;;;;;;;;6168681;28;20237;-71
2022/06/26 05:09:09;;;;;;;10.60;9.90;;;;;;;;;;6169991;28;20507;-70
2022/06/26 05:12:31;;;;;;;10.70;9.93;;;;;;;;;;6184175;28;20238;-70
2022/06/26 05:16:18;;;;;;;10.85;10.02;;;;;;;;;;6165372;28;20782;-71
2022/06/26 05:19:39;;;;;;;11.20;10.35;;;;;;;;;;6190021;28;20237;-71
2022/06/26 05:23:04;;;;;;;10.35;9.60;;;;;;;;;;6179850;28;20257;-71
2022/06/26 05:26:25;;;;;;;9.00;8.27;;;;;;;;;;6176470;28;20324;-69
2022/06/26 05:29:50;;;;;;;9.70;9.00;;;;;;;;;;6187301;28;20226;-71
2022/06/26 05:33:10;;;;;;;9.93;9.02;;;;;;;;;;6175568;28;20229;-70
2022/06/26 05:36:31;;;;;;;9.30;8.60;;;;;;;;;;6174117;28;20249;-70
2022/06/26 05:39:54;;;;;;;10.15;9.45;;;;;;;;;;6170682;28;20335;-71
2022/06/26 05:43:16;;;;;;;9.48;8.70;;;;;;;;;;6176594;28;20238;-70
2022/06/26 05:46:41;;;;;;;9.77;8.98;;;;;;;;;;6171904;28;21145;-72
2022/06/26 05:50:33;;;;;;;8.48;7.93;;;;;;;;;;6166875;28;20225;-70
2022/06/26 05:54:13;;;;;;;9.63;8.68;;;;;;;;;;6165714;28;20233;-70
2022/06/26 05:57:47;;;;;;;8.23;7.53;;;;;;;;;;6160359;28;20590;-70
2022/06/26 06:01:20;;;;;;;8.68;8.07;;;;;;;;;;6153136;28;20583;-71
2022/06/26 06:04:43;;;;;;;7.50;6.90;;;;;;;;;;6160432;28;20708;-71
2022/06/26 06:08:04;;;;;;;8.65;8.05;;;;;;;;;;6169424;28;20259;-69
2022/06/26 06:11:25;;;;;;;6.90;6.18;;;;;;;;;;6162488;28;20238;-71
2022/06/26 06:14:48;;;;;;;7.25;6.75;;;;;;;;;;6175987;28;20237;-70
2022/06/26 06:18:10;;;;;;;8.38;7.72;;;;;;;;;;6161154;28;20222;-71
2022/06/26 06:21:31;;;;;;;9.80;9.15;;;;;;;;;;6158627;28;20324;-71
2022/06/26 06:24:52;;;;;;;8.02;7.43;;;;;;;;;;6176824;28;20234;-71
2022/06/26 06:28:13;;;;;;;8.07;7.40;;;;;;;;;;6159431;28;20225;-70
2022/06/26 06:31:36;;;;;;;6.97;6.38;;;;;;;;;;6175321;28;20241;-71
2022/06/26 06:34:58;;;;;;;7.18;6.63;;;;;;;;;;6166764;28;20257;-70
2022/06/26 06:38:19;;;;;;;7.60;6.90;;;;;;;;;;6162316;28;20230;-70
2022/06/26 06:41:46;;;;;;;6.85;6.43;;;;;;;;;;6161193;28;20619;-69
2022/06/26 06:45:08;;;;;;;7.80;7.20;;;;;;;;;;6169561;28;20257;-70
2022/06/26 06:48:46;;;;;;;8.65;7.90;;;;;;;;;;6167602;28;20316;-70
2022/06/26 06:52:12;;;;;;;9.15;8.45;;;;;;;;;;6172085;28;20229;-71
2022/06/26 06:55:33;;;;;;;6.40;5.88;;;;;;;;;;6178332;28;20261;-70
2022/06/26 06:58:54;;;;;;;7.32;6.72;;;;;;;;;;6163343;28;20234;-71
2022/06/26 07:02:15;;;;;;;6.70;6.20;;;;;;;;;;6173716;28;20218;-70
2022/06/26 07:05:37;;;;;;;5.95;5.45;;;;;;;;;;6166775;28;20234;-70
2022/06/26 07:08:57;;;;;;;6.13;5.72;;;;;;;;;;6164133;28;20255;-70
2022/06/26 07:12:18;;;;;;;5.78;5.38;;;;;;;;;;6178954;28;20230;-69
2022/06/26 07:15:39;;;;;;;6.13;5.72;;;;;;;;;;6174852;28;22849;-70
2022/06/26 07:18:59;;;;;;;6.63;6.03;;;;;;;;;;6166246;28;20237;-71
2022/06/26 07:22:21;;;;;;;6.85;6.35;;;;;;;;;;6173625;28;20237;-71
2022/06/26 07:25:48;;;;;;;5.90;5.47;;;;;;;;;;6178567;28;20584;-70
2022/06/26 07:29:09;;;;;;;5.68;5.28;;;;;;;;;;6164581;28;20627;-71
2022/06/26 07:32:35;;;;;;;6.53;6.03;;;;;;;;;;6179254;28;20238;-70
2022/06/26 07:35:56;;;;;;;5.85;5.35;;;;;;;;;;6166987;28;20253;-69
2022/06/26 07:39:20;;;;;;;5.90;5.40;;;;;;;;;;6177803;28;20238;-71
2022/06/26 07:42:41;;;;;;;6.10;5.60;;;;;;;;;;6176607;28;20234;-71
2022/06/26 07:46:01;;;;;;;5.95;5.55;;;;;;;;;;6164269;28;20324;-69
2022/06/26 07:49:22;;;;;;;6.50;5.97;;;;;;;;;;6157853;28;20230;-70
2022/06/26 07:52:45;;;;;;;9.25;6.82;;;;;;;;;;6176928;28;20615;-72
2022/06/26 07:56:07;;;;;;;6.90;6.18;;;;;;;;;;6162797;28;20620;-71
2022/06/26 07:59:27;;;;;;;6.70;6.20;;;;;;;;;;6164662;28;20229;-73
2022/06/26 08:02:48;;;;;;;6.65;6.15;;;;;;;;;;6176401;28;20233;-73
2022/06/26 08:06:08;;;;;;;5.38;5.05;;;;;;;;;;6174303;28;21088;-73
2022/06/26 08:09:29;;;;;;;5.57;5.07;;;;;;;;;;6173098;28;20774;-72
2022/06/26 08:12:51;;;;;;;5.90;5.40;;;;;;;;;;6181322;28;20266;-72
2022/06/26 08:16:11;;;;;;;5.60;5.28;;;;;;;;;;6172549;28;20265;-73
2022/06/26 08:19:32;;;;;;;6.07;5.68;;;;;;;;;;6179231;28;20229;-75
2022/06/26 08:22:52;;;;;;;5.88;5.47;;;;;;;;;;6175362;28;20392;-72
2022/06/26 08:26:13;;;;;;;5.55;5.15;;;;;;;;;;6171587;28;20226;-74
2022/06/26 08:29:34;;;;;;;5.78;5.38;;;;;;;;;;6182629;28;20233;-70
2022/06/26 08:32:58;;;;;;;5.75;5.35;;;;;;;;;;6178583;28;20240;-75
2022/06/26 08:36:19;;;;;;;10.38;9.65;;;;;;;;;;6172406;28;20316;-75
2022/06/26 08:39:39;;;;;;;30.17;21.25;;;;;;;;;;6172463;28;20241;-74
2022/06/26 08:43:02;;;;;;;14.57;13.57;;;;;;;;;;6176458;28;20697;-71
2022/06/26 08:46:24;;;;;;;316.33;242.07;;;;;;;;;;6198601;28;21395;-70
2022/06/26 08:49:45;;;;;;;76.25;70.43;;;;;;;;;;6187780;28;20492;-71
2022/06/26 08:53:06;;;;;;;81.88;76.90;;;;;;;;;;6169808;28;20242;-72
2022/06/26 08:56:27;;;;;;;43.72;40.95;;;;;;;;;;6175342;28;20234;-77
2022/06/26 08:59:47;;;;;;;8.00;5.70;;;;;;;;;;6174555;28;20234;-77
2022/06/26 09:03:09;;;;;;;3.38;2.78;;;;;;;;;;6177723;28;20230;-76
2022/06/26 09:06:30;;;;;;;2.60;2.50;;;;;;;;;;6177240;28;20242;-75
2022/06/26 09:09:51;;;;;;;3.33;2.65;;;;;;;;;;6176597;28;20325;-76
2022/06/26 09:13:11;;;;;;;3.60;2.83;;;;;;;;;;6174233;28;20233;-77
2022/06/26 09:16:32;;;;;;;2.50;2.30;;;;;;;;;;6171922;28;20623;-78
2022/06/26 09:19:55;;;;;;;2.80;2.40;;;;;;;;;;6172161;28;20226;-78
2022/06/26 09:23:16;;;;;;;2.50;2.30;;;;;;;;;;6180165;28;20233;-76
2022/06/26 09:26:36;;;;;;;3.00;2.67;;;;;;;;;;6182299;28;20486;-75
2022/06/26 09:29:57;;;;;;;3.50;2.53;;;;;;;;;;6175371;28;20809;-78
2022/06/26 09:33:18;;;;;;;2.63;2.28;;;;;;;;;;6165953;28;20257;-77
2022/06/26 09:36:40;;;;;;;2.75;2.55;;;;;;;;;;6169732;28;20226;-78
2022/06/26 09:40:01;;;;;;;3.20;2.90;;;;;;;;;;6173417;28;20229;-77
2022/06/26 09:43:25;;;;;;;3.72;3.40;;;;;;;;;;6174208;28;20253;-76
2022/06/26 09:46:47;;;;;;;3.80;2.85;;;;;;;;;;6174445;28;20611;-78
2022/06/26 09:50:08;;;;;;;3.25;3.05;;;;;;;;;;6173381;28;20237;-77
2022/06/26 09:53:31;;;;;;;4.30;2.78;;;;;;;;;;6175421;28;20230;-75
2022/06/26 09:56:52;;;;;;;4.75;3.58;;;;;;;;;;6168879;28;22368;-76
2022/06/26 10:00:13;;;;;;;3.70;3.40;;;;;;;;;;6178355;28;20233;-75
2022/06/26 10:07:13;;;;;;;5.43;3.72;;;;;;;;;;6179921;28;20230;-76
2022/06/26 10:10:35;;;;;;;3.45;3.15;;;;;;;;;;6177614;28;20245;-76
2022/06/26 10:13:57;;;;;;;3.92;3.63;;;;;;;;;;6182764;28;20234;-75
2022/06/26 10:17:33;;;;;;;3.38;3.08;;;;;;;;;;6170758;28;20631;-76
2022/06/26 10:20:55;;;;;;;4.25;3.25;;;;;;;;;;6170030;28;20249;-77
2022/06/26 10:24:16;;;;;;;4.85;3.03;;;;;;;;;;6183578;28;20241;-76
2022/06/26 10:27:39;;;;;;;3.75;3.45;;;;;;;;;;6176319;28;20225;-77
2022/06/26 10:31:06;;;;;;;3.47;3.17;;;;;;;;;;6168078;28;20282;-76
2022/06/26 10:34:27;;;;;;;2.97;2.70;;;;;;;;;;6184470;28;20240;-77
2022/06/26 10:37:50;;;;;;;5.30;4.32;;;;;;;;;;6185374;28;20686;-75
2022/06/26 10:44:55;;;;;;;2.70;2.50;;;;;;;;;;6170584;28;20483;-75
2022/06/26 10:48:19;;;;;;;2.72;2.53;;;;;;;;;;6170820;28;20229;-71
2022/06/26 10:51:40;;;;;;;4.18;3.30;;;;;;;;;;6183501;28;20233;-72
2022/06/26 10:55:02;;;;;;;2.58;2.33;;;;;;;;;;6175363;28;20883;-72
2022/06/26 10:58:24;;;;;;;3.90;3.42;;;;;;;;;;6164681;28;20620;-71
2022/06/26 11:01:46;;;;;;;3.83;3.53;;;;;;;;;;6162044;28;20238;-72
2022/06/26 11:05:08;;;;;;;3.75;3.45;;;;;;;;;;6172999;28;20226;-73
2022/06/26 11:08:31;;;;;;;3.78;3.47;;;;;;;;;;6167870;28;20554;-71
2022/06/26 11:11:52;;;;;;;3.53;3.22;;;;;;;;;;6170084;28;20226;-72
2022/06/26 11:15:27;;;;;;;4.35;4.00;;;;;;;;;;6170771;28;20234;-72
2022/06/26 11:18:48;;;;;;;4.65;3.55;;;;;;;;;;6171428;28;20591;-71
2022/06/26 11:22:10;;;;;;;4.05;3.72;;;;;;;;;;6167530;28;20237;-72
2022/06/26 11:25:31;;;;;;;5.22;4.72;;;;;;;;;;6172679;28;20229;-71
2022/06/26 11:28:55;;;;;;;6.15;3.47;;;;;;;;;;6173835;28;20234;-71
2022/06/26 11:32:17;;;;;;;3.55;3.35;;;;;;;;;;6172161;28;20226;-72
2022/06/26 11:35:39;;;;;;;3.60;3.30;;;;;;;;;;6179062;28;20297;-72
2022/06/26 11:38:59;;;;;;;3.80;3.50;;;;;;;;;;6170874;28;20238;-71
2022/06/26 11:42:21;;;;;;;6.50;5.18;;;;;;;;;;6176752;28;20222;-70
2022/06/26 11:45:43;;;;;;;5.60;4.85;;;;;;;;;;6172374;28;21279;-70
2022/06/26 11:49:03;;;;;;;6.95;4.35;;;;;;;;;;6189628;28;20501;-70
2022/06/26 11:52:25;;;;;;;4.20;3.78;;;;;;;;;;6176065;28;20233;-72
2022/06/26 11:55:47;;;;;;;4.43;4.10;;;;;;;;;;6173480;28;20245;-70
2022/06/26 11:59:07;;;;;;;5.60;5.07;;;;;;;;;;6178963;28;20233;-70
2022/06/26 12:02:28;;;;;;;5.53;5.03;;;;;;;;;;6169919;28;20230;-71
2022/06/26 12:05:49;;;;;;;4.60;4.20;;;;;;;;;;6172622;28;20613;-69
2022/06/26 12:09:20;;;;;;;5.55;4.18;;;;;;;;;;6175281;28;20612;-70
2022/06/26 12:12:49;;;;;;;4.40;3.75;;;;;;;;;;6179709;28;20324;-70
2022/06/26 12:16:10;;;;;;;3.90;3.60;;;;;;;;;;6173849;28;20658;-71
2022/06/26 12:19:37;;;;;;;3.85;3.50;;;;;;;;;;6170681;28;20229;-72
2022/06/26 12:22:58;;;;;;;6.80;4.38;;;;;;;;;;6177104;28;20671;-70
2022/06/26 12:26:22;;;;;;;4.75;4.45;;;;;;;;;;6176994;28;20593;-70
2022/06/26 12:29:43;;;;;;;4.20;3.90;;;;;;;;;;6182572;28;20234;-71
2022/06/26 12:33:04;;;;;;;4.65;4.35;;;;;;;;;;6166858;28;20600;-71
2022/06/26 12:36:25;;;;;;;5.85;5.35;;;;;;;;;;6181256;28;20229;-70
2022/06/26 12:39:46;;;;;;;4.55;4.15;;;;;;;;;;6185215;28;20694;-70
2022/06/26 12:43:09;;;;;;;5.68;3.90;;;;;;;;;;6182557;28;20250;-70
2022/06/26 12:46:30;;;;;;;4.82;3.80;;;;;;;;;;6184610;28;20558;-69
2022/06/26 12:49:51;;;;;;;5.90;5.40;;;;;;;;;;6184340;28;20562;-70
2022/06/26 12:53:12;;;;;;;6.75;6.25;;;;;;;;;;6179804;28;20234;-71
2022/06/26 12:56:33;;;;;;;5.05;4.63;;;;;;;;;;6184256;28;20241;-70
2022/06/26 12:59:55;;;;;;;4.10;3.70;;;;;;;;;;6177222;28;20238;-69
2022/06/26 13:03:16;;;;;;;4.93;4.10;;;;;;;;;;6178628;28;20238;-69
2022/06/26 13:06:36;;;;;;;4.78;4.38;;;;;;;;;;6184439;28;20233;-69
2022/06/26 13:09:57;;;;;;;3.78;3.50;;;;;;;;;;6185181;28;20226;-71
2022/06/26 13:13:18;;;;;;;5.07;4.03;;;;;;;;;;6186188;28;20333;-70
2022/06/26 13:16:41;;;;;;;4.18;3.88;;;;;;;;;;6182325;28;20748;-70
2022/06/26 13:20:01;;;;;;;4.95;4.13;;;;;;;;;;6182906;28;20643;-70
2022/06/26 13:23:22;;;;;;;4.35;3.95;;;;;;;;;;6179877;28;20233;-70
2022/06/26 13:26:43;;;;;;;4.75;4.15;;;;;;;;;;6186799;28;20237;-70
2022/06/26 13:30:04;;;;;;;6.97;6.38;;;;;;;;;;6181820;28;20245;-70
2022/06/26 13:33:25;;;;;;;8.57;7.15;;;;;;;;;;6182645;28;20226;-69
2022/06/26 13:36:46;;;;;;;6.88;6.30;;;;;;;;;;6179436;28;20236;-71
2022/06/26 13:40:07;;;;;;;9.40;8.60;;;;;;;;;;6178630;28;20230;-71
2022/06/26 13:43:28;;;;;;;6.20;5.38;;;;;;;;;;6179637;28;20226;-70
2022/06/26 13:46:49;;;;;;;4.88;4.57;;;;;;;;;;6176919;28;20225;-70
2022/06/26 13:50:11;;;;;;;6.82;6.32;;;;;;;;;;6171353;28;20249;-71
2022/06/26 13:53:32;;;;;;;6.20;5.65;;;;;;;;;;6181800;28;20249;-70
2022/06/26 13:56:52;;;;;;;10.68;9.70;;;;;;;;;;6177057;28;20233;-69
2022/06/26 14:00:13;;;;;;;4.68;4.32;;;;;;;;;;6177316;28;20247;-70
2022/06/26 14:03:34;;;;;;;8.23;7.63;;;;;;;;;;6178984;28;20615;-70
2022/06/26 14:06:55;;;;;;;3.63;3.20;;;;;;;;;;6182246;28;20233;-71
2022/06/26 14:10:16;;;;;;;4.07;3.17;;;;;;;;;;6176347;28;20617;-69
2022/06/26 14:13:37;;;;;;;2.47;2.17;;;;;;;;;;6177670;28;20279;-70
2022/06/26 14:16:57;;;;;;;4.22;3.92;;;;;;;;;;6178229;28;20249;-71
2022/06/26 14:20:18;;;;;;;7.68;7.07;;;;;;;;;;6180129;28;20321;-71
2022/06/26 14:27:17;;;;;;;3.35;2.80;;;;;;;;;;6179894;28;20364;-71
2022/06/26 14:30:38;;;;;;;5.28;4.80;;;;;;;;;;6177864;28;20268;-72
2022/06/26 14:34:03;;;;;;;3.10;2.78;;;;;;;;;;6175284;28;20225;-70
2022/06/26 14:37:23;;;;;;;12.82;11.68;;;;;;;;;;6182872;28;20234;-70
2022/06/26 14:40:46;;;;;;;4.65;4.30;;;;;;;;;;6471858;22;20232;-72
2022/06/26 14:44:06;;;;;;;4.22;3.92;;;;;;;;;;6220666;28;20229;-70
2022/06/26 14:47:27;;;;;;;5.63;5.13;;;;;;;;;;6210148;28;20525;-70
2022/06/26 14:50:47;;;;;;;6.00;5.57;;;;;;;;;;6204673;28;20236;-70
2022/06/26 14:54:08;;;;;;;6.07;5.68;;;;;;;;;;6220681;28;20224;-70
2022/06/26 14:57:30;;;;;;;9.25;8.45;;;;;;;;;;6197150;28;20603;-71
2022/06/26 15:00:51;;;;;;;4.95;2.10;;;;;;;;;;6207903;28;20241;-69
2022/06/26 15:04:11;;;;;;;4.57;4.18;;;;;;;;;;6215938;28;20228;-71
2022/06/26 15:07:32;;;;;;;5.40;4.90;;;;;;;;;;6209569;28;20552;-71
2022/06/26 15:10:53;;;;;;;3.80;3.45;;;;;;;;;;6208516;28;20228;-71
2022/06/26 15:14:16;;;;;;;4.80;4.43;;;;;;;;;;6221659;28;20597;-72
2022/06/26 15:17:36;;;;;;;4.75;4.40;;;;;;;;;;6222086;28;20239;-71
2022/06/26 15:20:57;;;;;;;5.57;5.13;;;;;;;;;;6223683;28;20232;-71
2022/06/26 15:24:18;;;;;;;2.33;2.13;;;;;;;;;;6222702;28;20497;-70
2022/06/26 15:27:38;;;;;;;4.05;3.05;;;;;;;;;;6221070;28;20232;-71
2022/06/26 15:31:00;;;;;;;4.63;4.22;;;;;;;;;;6212818;28;20524;-71
2022/06/26 15:34:21;;;;;;;5.55;5.05;;;;;;;;;;6212465;28;20506;-70
2022/06/26 15:37:42;;;;;;;4.38;4.00;;;;;;;;;;6219221;28;20227;-69
2022/06/26 15:41:04;;;;;;;13.13;12.05;;;;;;;;;;6203108;28;20245;-70
2022/06/26 15:44:24;;;;;;;8.57;7.85;;;;;;;;;;6194566;28;20229;-70
2022/06/26 15:47:46;;;;;;;5.95;5.55;;;;;;;;;;6195487;28;20233;-70
2022/06/26 15:51:07;;;;;;;10.75;9.68;;;;;;;;;;6200250;28;20329;-69
2022/06/26 15:54:28;;;;;;;6.38;5.75;;;;;;;;;;6200641;28;20241;-70
2022/06/26 15:57:48;;;;;;;3.38;2.08;;;;;;;;;;6194448;28;20260;-71
2022/06/26 16:01:09;;;;;;;3.30;2.13;;;;;;;;;;6193886;28;22015;-70
2022/06/26 16:04:31;;;;;;;8.35;7.55;;;;;;;;;;6194914;28;20233;-69
2022/06/26 16:07:51;;;;;;;17.02;15.25;;;;;;;;;;6196759;28;22533;-70
2022/06/26 16:11:11;;;;;;;5.15;4.65;;;;;;;;;;6194803;28;20630;-69
2022/06/26 16:14:32;;;;;;;5.35;4.85;;;;;;;;;;6192916;28;20229;-71
2022/06/26 16:17:53;;;;;;;3.92;3.63;;;;;;;;;;6198666;28;20697;-71
2022/06/26 16:21:14;;;;;;;5.00;4.55;;;;;;;;;;6202218;28;20316;-71
2022/06/26 16:28:13;;;;;;;5.35;4.85;;;;;;;;;;6200212;28;20652;-69
2022/06/26 16:31:34;;;;;;;6.18;5.18;;;;;;;;;;6192130;28;20229;-70
2022/06/26 16:34:55;;;;;;;10.90;9.93;;;;;;;;;;6188435;28;20319;-70
2022/06/26 16:38:17;;;;;;;3.60;3.30;;;;;;;;;;6197214;28;20249;-69
2022/06/26 16:41:39;;;;;;;6.97;5.82;;;;;;;;;;6196259;28;20819;-69
2022/06/26 16:44:59;;;;;;;4.82;4.43;;;;;;;;;;6192666;28;20222;-68
2022/06/26 16:48:20;;;;;;;4.43;3.88;;;;;;;;;;6199044;28;20234;-70
2022/06/26 16:51:41;;;;;;;1.90;1.80;;;;;;;;;;6196969;28;20689;-69
2022/06/26 16:55:03;;;;;;;4.68;4.28;;;;;;;;;;6189409;28;20229;-71
2022/06/26 16:58:25;;;;;;;3.30;2.97;;;;;;;;;;6195368;28;20304;-72
2022/06/26 17:01:46;;;;;;;355.23;326.60;;;;;;;;;;6191049;28;20609;-69
2022/06/26 17:05:07;;;;;;;595.72;536.03;;;;;;;;;;6189130;28;20815;-70
2022/06/26 17:08:27;;;;;;;619.55;555.90;;;;;;;;;;6195836;28;20265;-77
2022/06/26 17:11:50;;;;;;;45.42;41.47;;;;;;;;;;6198393;28;20509;-72
2022/06/26 17:15:11;;;;;;;24.38;22.35;;;;;;;;;;6201613;28;20332;-73
2022/06/26 17:18:32;;;;;;;13.68;12.25;;;;;;;;;;6200660;28;20332;-72
2022/06/26 17:21:52;;;;;;;13.48;12.38;;;;;;;;;;6196256;28;20225;-72
2022/06/26 17:25:13;;;;;;;14.75;13.40;;;;;;;;;;6200234;28;20860;-73
2022/06/26 17:28:36;;;;;;;4.53;4.13;;;;;;;;;;6200332;28;20264;-72
2022/06/26 17:31:57;;;;;;;4.53;3.97;;;;;;;;;;6205386;28;20222;-73
2022/06/26 17:35:17;;;;;;;3.17;2.88;;;;;;;;;;6198135;28;20225;-72
2022/06/26 17:38:38;;;;;;;3.05;2.40;;;;;;;;;;6198073;28;20238;-72
2022/06/26 17:41:59;;;;;;;6.93;6.32;;;;;;;;;;6193474;28;20224;-71
2022/06/26 17:45:21;;;;;;;4.10;3.75;;;;;;;;;;6192695;28;21390;-72
2022/06/26 17:48:42;;;;;;;6.55;6.05;;;;;;;;;;6187974;28;20233;-73
2022/06/26 17:52:02;;;;;;;5.25;4.82;;;;;;;;;;6189306;28;20308;-73
2022/06/26 17:55:23;;;;;;;4.03;3.00;;;;;;;;;;6186833;28;20221;-74
2022/06/26 17:58:44;;;;;;;7.38;6.72;;;;;;;;;;6195950;28;20992;-74
2022/06/26 18:02:07;;;;;;;3.40;3.15;;;;;;;;;;6200336;28;20225;-73
2022/06/26 18:05:28;;;;;;;10.13;9.15;;;;;;;;;;6203740;28;20610;-74
2022/06/26 18:08:48;;;;;;;2.35;2.22;;;;;;;;;;6206842;28;20687;-73
2022/06/26 18:12:09;;;;;;;7.80;7.07;;;;;;;;;;6208512;28;20229;-74
2022/06/26 18:15:30;;;;;;;6.53;5.93;;;;;;;;;;6197930;28;20257;-73
2022/06/26 18:18:52;;;;;;;6.90;6.40;;;;;;;;;;6189819;28;20256;-74
2022/06/26 18:22:12;;;;;;;1.90;1.80;;;;;;;;;;6189215;28;20241;-72
2022/06/26 18:25:33;;;;;;;10.95;9.98;;;;;;;;;;6195309;28;20352;-72
2022/06/26 18:28:53;;;;;;;5.82;5.28;;;;;;;;;;6184424;28;20610;-71
2022/06/26 18:32:15;;;;;;;4.55;4.15;;;;;;;;;;6188916;28;20497;-73
2022/06/26 18:35:38;;;;;;;9.80;8.93;;;;;;;;;;6191071;28;20229;-71
2022/06/26 18:38:58;;;;;;;3.38;2.90;;;;;;;;;;6183411;28;20967;-70
2022/06/26 18:42:20;;;;;;;2.50;2.03;;;;;;;;;;6186826;28;20225;-71
2022/06/26 18:45:41;;;;;;;2.08;1.88;;;;;;;;;;6196141;28;20823;-70
2022/06/26 18:49:01;;;;;;;3.55;3.35;;;;;;;;;;6196469;28;21943;-70
2022/06/26 18:52:23;;;;;;;5.05;4.55;;;;;;;;;;6198941;28;20229;-71
2022/06/26 18:55:44;;;;;;;2.20;2.10;;;;;;;;;;6196483;28;20518;-72
2022/06/26 18:59:04;;;;;;;3.38;1.80;;;;;;;;;;6199943;28;20222;-72
2022/06/26 19:02:27;;;;;;;5.57;5.13;;;;;;;;;;6198868;28;20618;-70
2022/06/26 19:05:48;;;;;;;4.70;3.65;;;;;;;;;;6203920;28;20558;-71
2022/06/26 19:09:10;;;;;;;6.78;6.20;;;;;;;;;;6194565;28;20552;-69
2022/06/26 19:16:09;;;;;;;13.20;11.90;;;;;;;;;;6203073;28;20244;-71
2022/06/26 19:19:29;;;;;;;3.50;3.20;;;;;;;;;;6200175;28;20221;-69
2022/06/26 19:22:50;;;;;;;2.05;1.88;;;;;;;;;;6205794;28;20225;-73
2022/06/26 19:26:12;;;;;;;2.03;1.92;;;;;;;;;;6202485;28;20316;-71
2022/06/26 19:29:33;;;;;;;2.05;1.90;;;;;;;;;;6202940;28;21023;-71
2022/06/26 19:32:54;;;;;;;2.03;1.85;;;;;;;;;;6203361;28;20225;-70
2022/06/26 19:36:14;;;;;;;2.50;2.30;;;;;;;;;;6197004;28;20693;-70
2022/06/26 19:39:35;;;;;;;47.17;42.72;;;;;;;;;;6200940;28;20353;-70
2022/06/26 19:42:57;;;;;;;12.48;11.32;;;;;;;;;;6200517;28;20233;-69
2022/06/26 19:46:18;;;;;;;5.55;5.15;;;;;;;;;;6205051;28;20229;-71
2022/06/26 19:53:18;;;;;;;5.70;5.20;;;;;;;;;;6205991;28;20551;-71
2022/06/26 19:56:39;;;;;;;7.47;6.82;;;;;;;;;;6207362;28;20252;-71
2022/06/26 20:00:02;;;;;;;5.93;4.72;;;;;;;;;;6193741;28;20237;-71
2022/06/26 20:07:05;;;;;;;6.75;6.15;;;;;;;;;;6189134;28;20217;-71
2022/06/26 20:10:26;;;;;;;9.07;7.40;;;;;;;;;;6192267;28;20320;-72
2022/06/26 20:13:47;;;;;;;8.85;8.05;;;;;;;;;;6202386;28;20233;-70
2022/06/26 20:17:08;;;;;;;10.45;9.38;;;;;;;;;;6196957;28;20237;-69
2022/06/26 20:20:31;;;;;;;15.88;14.35;;;;;;;;;;6202928;28;20237;-70
2022/06/26 20:23:52;;;;;;;4.38;3.50;;;;;;;;;;6200785;28;20225;-71
2022/06/26 20:27:12;;;;;;;8.35;7.50;;;;;;;;;;6205785;28;20237;-71
2022/06/26 20:30:33;;;;;;;4.72;4.32;;;;;;;;;;6202386;28;20245;-71
2022/06/26 20:33:56;;;;;;;5.40;4.57;;;;;;;;;;6195300;28;20256;-71
2022/06/26 20:37:16;;;;;;;2.97;2.78;;;;;;;;;;6197715;28;20531;-71